createdAt,value
2023-02-18T00:01:40.413Z,9.40
2023-02-18T00:04:09.515Z,10.30
2023-02-18T00:06:38.932Z,8.10
2023-02-18T00:09:07.104Z,9.90
2023-02-18T00:11:37.077Z,8.60
2023-02-18T00:14:08.577Z,8.80
2023-02-18T00:16:36.904Z,8.10
2023-02-18T00:19:07.739Z,8.70
2023-02-18T00:21:35.929Z,10.70
2023-02-18T00:24:06.320Z,9.90
2023-02-18T00:26:35.442Z,9.50
2023-02-18T00:29:04.580Z,9.80
2023-02-18T00:31:36.575Z,10.10
2023-02-18T00:34:05.922Z,9.60
2023-02-18T00:36:35.868Z,9.90
2023-02-18T00:39:06.144Z,9.50
2023-02-18T00:41:35.520Z,10.00
2023-02-18T00:44:03.657Z,7.40
2023-02-18T00:46:32.890Z,8.20
2023-02-18T00:49:03.282Z,8.10
2023-02-18T00:51:31.437Z,7.50
2023-02-18T00:53:59.596Z,7.30
2023-02-18T00:56:28.289Z,7.60
2023-02-18T00:58:56.163Z,7.30
2023-02-18T01:01:24.652Z,7.80
2023-02-18T01:03:52.562Z,6.50
2023-02-18T01:06:22.575Z,7.90
2023-02-18T01:08:50.598Z,8.70
2023-02-18T01:11:18.853Z,7.90
2023-02-18T01:13:48.122Z,8.30
2023-02-18T01:16:17.473Z,8.40
2023-02-18T01:18:47.798Z,9.80
2023-02-18T01:21:16.120Z,7.90
2023-02-18T01:23:44.108Z,7.40
2023-02-18T01:26:12.508Z,8.00
2023-02-18T01:28:42.431Z,7.50
2023-02-18T01:31:12.866Z,7.00
2023-02-18T01:33:41.303Z,7.40
2023-02-18T01:36:11.057Z,6.50
2023-02-18T01:38:39.779Z,6.80
2023-02-18T01:41:09.903Z,6.90
2023-02-18T01:43:38.914Z,7.60
2023-02-18T01:46:12.492Z,8.50
2023-02-18T01:48:56.087Z,7.90
2023-02-18T01:51:28.793Z,6.60
2023-02-18T01:54:06.162Z,8.60
2023-02-18T01:56:45.317Z,6.10
2023-02-18T01:59:17.070Z,7.70
2023-02-18T02:01:48.521Z,5.50
2023-02-18T02:04:16.660Z,6.50
2023-02-18T02:06:44.624Z,5.50
2023-02-18T02:09:16.288Z,6.70
2023-02-18T02:11:56.373Z,5.00
2023-02-18T02:14:36.075Z,5.50
2023-02-18T02:17:19.178Z,5.60
2023-02-18T02:20:16.537Z,5.30
2023-02-18T02:23:21.202Z,6.30
2023-02-18T02:26:04.373Z,7.30
2023-02-18T02:29:04.843Z,6.70
2023-02-18T02:31:59.105Z,3.80
2023-02-18T02:34:49.428Z,8.10
2023-02-18T02:37:27.109Z,4.50
2023-02-18T02:40:27.767Z,6.20
2023-02-18T02:43:13.132Z,4.70
2023-02-18T02:45:59.229Z,7.40
2023-02-18T02:48:33.025Z,4.60
2023-02-18T02:51:18.533Z,5.10
2023-02-18T02:53:46.589Z,6.40
2023-02-18T02:56:21.244Z,4.80
2023-02-18T02:59:02.927Z,4.80
2023-02-18T03:01:51.435Z,7.70
2023-02-18T03:04:36.546Z,5.70
2023-02-18T03:07:31.360Z,8.10
2023-02-18T03:10:26.947Z,10.80
2023-02-18T03:13:34.633Z,5.80
2023-02-18T03:16:35.212Z,5.40
2023-02-18T03:19:29.953Z,7.30
2023-02-18T03:22:18.660Z,7.50
2023-02-18T03:24:50.678Z,6.50
2023-02-18T03:27:49.600Z,6.20
2023-02-18T03:30:35.423Z,9.20
2023-02-18T03:33:09.998Z,6.60
2023-02-18T03:35:41.186Z,6.00
2023-02-18T03:38:46.082Z,5.70
2023-02-18T03:41:14.363Z,6.10
2023-02-18T03:43:51.090Z,4.90
2023-02-18T03:46:19.979Z,5.70
2023-02-18T03:48:47.871Z,6.30
2023-02-18T03:51:15.811Z,5.60
2023-02-18T03:53:44.444Z,7.10
2023-02-18T03:56:14.302Z,5.30
2023-02-18T03:58:42.300Z,6.20
2023-02-18T04:01:10.313Z,6.40
2023-02-18T04:03:38.413Z,7.10
2023-02-18T04:06:06.741Z,6.90
2023-02-18T04:08:35.565Z,5.40
2023-02-18T04:11:05.269Z,5.70
2023-02-18T04:13:33.428Z,6.20
2023-02-18T04:16:01.375Z,6.60
2023-02-18T04:18:29.338Z,6.00
2023-02-18T04:20:57.259Z,6.20
2023-02-18T04:23:25.214Z,5.20
2023-02-18T04:25:53.232Z,6.40
2023-02-18T04:28:21.123Z,7.60
2023-02-18T04:30:49.315Z,6.70
2023-02-18T04:33:17.482Z,6.30
2023-02-18T04:35:46.107Z,7.60
2023-02-18T04:38:14.212Z,5.90
2023-02-18T04:40:42.168Z,5.10
2023-02-18T04:43:10.099Z,7.00
2023-02-18T04:45:38.032Z,5.30
2023-02-18T04:48:06.148Z,6.00
2023-02-18T04:50:34.799Z,4.00
2023-02-18T04:53:03.113Z,3.90
2023-02-18T04:55:31.016Z,4.20
2023-02-18T04:57:58.925Z,4.50
2023-02-18T05:00:28.816Z,4.80
2023-02-18T05:02:56.823Z,5.40
2023-02-18T05:05:24.779Z,4.30
2023-02-18T05:07:53.215Z,4.20
2023-02-18T05:10:21.152Z,4.70
2023-02-18T05:12:49.060Z,5.20
2023-02-18T05:15:17.076Z,4.90
2023-02-18T05:17:45.048Z,4.30
2023-02-18T05:20:13.658Z,5.10
2023-02-18T05:22:42.054Z,7.40
2023-02-18T05:25:10.148Z,6.10
2023-02-18T05:27:38.102Z,6.30
2023-02-18T05:30:06.692Z,5.50
2023-02-18T05:32:34.641Z,7.00
2023-02-18T05:35:02.583Z,5.70
2023-02-18T05:37:30.486Z,4.40
2023-02-18T05:39:58.351Z,5.80
2023-02-18T05:42:26.369Z,7.00
2023-02-18T05:44:54.202Z,6.60
2023-02-18T05:47:22.203Z,6.60
2023-02-18T05:49:52.047Z,6.80
2023-02-18T05:52:20.046Z,7.00
2023-02-18T05:54:48.112Z,5.90
2023-02-18T05:57:16.093Z,6.60
2023-02-18T05:59:44.031Z,6.40
2023-02-18T06:02:11.921Z,6.40
2023-02-18T06:04:40.718Z,5.40
2023-02-18T06:07:08.922Z,6.50
2023-02-18T06:09:36.872Z,6.00
2023-02-18T06:12:05.074Z,6.40
2023-02-18T06:14:33.143Z,8.30
2023-02-18T06:17:01.021Z,4.10
2023-02-18T06:19:29.007Z,6.80
2023-02-18T06:21:56.884Z,5.00
2023-02-18T06:24:24.785Z,7.40
2023-02-18T06:26:52.664Z,5.80
2023-02-18T06:29:20.528Z,8.10
2023-02-18T06:31:48.641Z,5.20
2023-02-18T06:34:17.281Z,5.80
2023-02-18T06:36:45.184Z,6.20
2023-02-18T06:39:13.070Z,5.80
2023-02-18T06:41:41.175Z,5.60
2023-02-18T06:44:09.063Z,5.30
2023-02-18T06:46:37.588Z,5.90
2023-02-18T06:49:05.605Z,6.50
2023-02-18T06:51:33.699Z,5.50
2023-02-18T06:54:01.633Z,7.30
2023-02-18T06:56:30.977Z,5.50
2023-02-18T06:58:59.434Z,6.00
2023-02-18T07:01:27.336Z,7.60
2023-02-18T07:03:55.548Z,6.60
2023-02-18T07:06:23.632Z,9.60
2023-02-18T07:08:51.600Z,5.10
2023-02-18T07:11:19.504Z,5.20
2023-02-18T07:13:47.420Z,5.20
2023-02-18T07:16:15.302Z,5.90
2023-02-18T07:18:43.322Z,6.00
2023-02-18T07:21:11.264Z,6.60
2023-02-18T07:23:39.170Z,7.70
2023-02-18T07:26:12.623Z,6.20
2023-02-18T07:28:41.953Z,5.70
2023-02-18T07:31:10.675Z,7.60
2023-02-18T07:33:38.676Z,4.90
2023-02-18T07:36:07.628Z,5.20
2023-02-18T07:38:36.308Z,6.30
2023-02-18T07:41:04.445Z,5.00
2023-02-18T07:43:32.381Z,5.40
2023-02-18T07:46:00.457Z,5.80
2023-02-18T07:48:28.372Z,5.60
2023-02-18T07:50:56.266Z,8.20
2023-02-18T07:53:24.160Z,7.30
2023-02-18T07:55:52.199Z,7.40
2023-02-18T07:58:26.574Z,6.50
2023-02-18T08:00:55.670Z,6.30
2023-02-18T08:03:26.922Z,5.70
2023-02-18T08:05:55.937Z,6.20
2023-02-18T08:08:26.115Z,6.10
2023-02-18T08:10:56.144Z,7.60
2023-02-18T08:13:24.802Z,6.90
2023-02-18T08:15:59.638Z,6.70
2023-02-18T08:18:27.791Z,8.40
2023-02-18T08:20:55.916Z,6.50
2023-02-18T08:23:25.631Z,6.40
2023-02-18T08:25:54.523Z,7.50
2023-02-18T08:28:24.703Z,9.40
2023-02-18T08:30:54.274Z,8.50
2023-02-18T08:33:24.164Z,6.70
2023-02-18T08:35:53.999Z,8.30
2023-02-18T08:38:23.774Z,7.70
2023-02-18T08:41:05.957Z,6.00
2023-02-18T08:43:34.529Z,8.40
2023-02-18T08:46:03.547Z,12.10
2023-02-18T08:48:32.867Z,17.50
2023-02-18T08:51:00.926Z,25.20
2023-02-18T08:53:28.820Z,20.50
2023-02-18T08:55:56.735Z,11.50
2023-02-18T08:58:24.650Z,17.70
2023-02-18T09:00:52.569Z,19.20
2023-02-18T09:03:20.463Z,14.80
2023-02-18T09:05:48.358Z,10.50
2023-02-18T09:08:16.305Z,9.00
2023-02-18T09:10:46.248Z,13.60
2023-02-18T09:13:14.455Z,8.10
2023-02-18T09:15:42.510Z,12.50
2023-02-18T09:18:10.478Z,7.90
2023-02-18T09:20:40.460Z,9.80
2023-02-18T09:23:08.343Z,7.70
2023-02-18T09:25:40.543Z,9.70
2023-02-18T09:28:08.496Z,7.80
2023-02-18T09:30:36.515Z,9.30
2023-02-18T09:33:04.544Z,9.50
2023-02-18T09:35:32.521Z,9.90
2023-02-18T09:38:00.565Z,10.10
2023-02-18T09:40:33.106Z,9.30
2023-02-18T09:43:01.855Z,8.00
2023-02-18T09:45:30.473Z,8.70
2023-02-18T09:48:00.006Z,7.90
2023-02-18T09:50:33.319Z,8.10
2023-02-18T09:53:04.165Z,11.90
2023-02-18T09:55:39.151Z,7.80
2023-02-18T09:58:13.681Z,12.10
2023-02-18T10:03:14.324Z,11.90
2023-02-18T10:06:04.199Z,8.30
2023-02-18T10:08:52.022Z,10.30
2023-02-18T10:11:35.532Z,8.30
2023-02-18T10:14:04.842Z,12.50
2023-02-18T10:16:32.848Z,12.50
2023-02-18T10:19:09.972Z,10.30
2023-02-18T10:21:38.661Z,8.30
2023-02-18T10:24:32.138Z,7.30
2023-02-18T10:27:00.936Z,7.60
2023-02-18T10:29:32.409Z,5.60
2023-02-18T10:32:06.518Z,7.30
2023-02-18T10:34:41.829Z,9.00
2023-02-18T10:37:31.801Z,7.50
2023-02-18T10:40:17.888Z,9.80
2023-02-18T10:43:11.202Z,13.70
2023-02-18T10:45:57.869Z,7.60
2023-02-18T10:48:25.773Z,11.80
2023-02-18T10:50:54.015Z,8.60
2023-02-18T10:53:39.258Z,8.70
2023-02-18T10:56:08.658Z,9.00
2023-02-18T10:59:02.027Z,8.00
2023-02-18T11:01:31.677Z,8.10
2023-02-18T11:04:16.460Z,8.80
2023-02-18T11:09:50.723Z,10.60
2023-02-18T11:12:46.591Z,9.90
2023-02-18T11:15:14.459Z,9.40
2023-02-18T11:17:45.138Z,10.40
2023-02-18T11:20:25.318Z,9.20
2023-02-18T11:22:58.381Z,10.40
2023-02-18T11:25:33.513Z,10.00
2023-02-18T11:28:26.483Z,9.30
2023-02-18T11:30:58.679Z,7.10
2023-02-18T11:33:29.761Z,9.40
2023-02-18T11:35:58.964Z,12.00
2023-02-18T11:38:38.449Z,8.60
2023-02-18T11:41:10.561Z,10.10
2023-02-18T11:43:43.804Z,14.90
2023-02-18T11:46:15.917Z,16.80
2023-02-18T11:48:44.039Z,11.40
2023-02-18T11:51:38.907Z,14.90
2023-02-18T11:54:22.363Z,12.60
2023-02-18T11:57:06.749Z,17.50
2023-02-18T11:59:37.452Z,14.80
2023-02-18T12:02:11.352Z,12.20
2023-02-18T12:04:47.672Z,9.90
2023-02-18T12:07:24.352Z,10.10
2023-02-18T12:09:56.665Z,10.00
2023-02-18T12:12:38.531Z,11.20
2023-02-18T12:15:09.710Z,9.20
2023-02-18T12:18:05.964Z,9.70
2023-02-18T12:21:27.825Z,9.40
2023-02-18T12:24:06.513Z,12.00
2023-02-18T12:26:55.789Z,11.40
2023-02-18T12:29:29.545Z,8.80
2023-02-18T12:32:24.215Z,11.00
2023-02-18T12:35:33.336Z,12.70
2023-02-18T12:38:36.158Z,11.20
2023-02-18T12:41:07.121Z,9.70
2023-02-18T12:43:38.017Z,12.90
2023-02-18T12:46:22.226Z,10.80
2023-02-18T12:49:08.630Z,8.90
2023-02-18T12:51:59.315Z,10.50
2023-02-18T12:55:04.786Z,9.20
2023-02-18T13:00:22.378Z,12.50
2023-02-18T13:03:09.369Z,11.70
2023-02-18T13:06:08.282Z,15.90
2023-02-18T13:09:03.515Z,10.50
2023-02-18T13:11:40.640Z,11.50
2023-02-18T13:14:21.795Z,13.20
2023-02-18T13:16:56.157Z,14.60
2023-02-18T13:19:33.816Z,16.40
2023-02-18T13:22:09.441Z,13.70
2023-02-18T13:24:40.019Z,19.20
2023-02-18T13:27:38.928Z,21.60
2023-02-18T13:30:36.131Z,21.50
2023-02-18T13:33:15.254Z,24.20
2023-02-18T13:36:01.381Z,19.40
2023-02-18T13:39:08.493Z,20.90
2023-02-18T13:41:42.349Z,23.20
2023-02-18T13:44:30.173Z,23.30
2023-02-18T13:46:59.391Z,26.90
2023-02-18T13:49:38.355Z,20.20
2023-02-18T13:52:07.588Z,21.20
2023-02-18T13:54:45.197Z,19.80
2023-02-18T13:57:21.968Z,24.10
2023-02-18T14:00:02.215Z,20.40
2023-02-18T14:02:35.993Z,25.00
2023-02-18T14:05:07.055Z,21.60
2023-02-18T14:07:41.626Z,21.00
2023-02-18T14:10:12.695Z,26.20
2023-02-18T14:13:19.682Z,24.30
2023-02-18T14:16:01.460Z,16.70
2023-02-18T14:18:53.993Z,16.30
2023-02-18T14:21:37.050Z,29.30
2023-02-18T14:24:08.163Z,27.60
2023-02-18T14:26:49.543Z,47.00
2023-02-18T14:29:43.766Z,208.40
2023-02-18T14:32:13.355Z,52.90
2023-02-18T14:35:00.731Z,31.00
2023-02-18T14:37:51.550Z,30.60
2023-02-18T14:40:28.463Z,24.30
2023-02-18T14:43:18.140Z,32.00
2023-02-18T14:46:04.985Z,22.20
2023-02-18T14:48:51.152Z,42.80
2023-02-18T14:51:24.127Z,32.40
2023-02-18T14:53:52.860Z,32.40
2023-02-18T14:56:22.220Z,21.90
2023-02-18T14:58:59.417Z,19.70
2023-02-18T15:01:33.171Z,25.90
2023-02-18T15:04:02.923Z,34.10
2023-02-18T15:06:33.684Z,22.60
2023-02-18T15:09:18.434Z,27.30
2023-02-18T15:11:58.586Z,29.50
2023-02-18T15:14:30.848Z,33.20
2023-02-18T15:16:59.896Z,39.90
2023-02-18T15:19:32.520Z,34.70
2023-02-18T15:22:00.562Z,38.80
2023-02-18T15:24:41.020Z,48.30
2023-02-18T15:27:19.314Z,42.00
2023-02-18T15:30:28.470Z,34.80
2023-02-18T15:33:01.248Z,34.60
2023-02-18T15:35:33.371Z,38.30
2023-02-18T15:38:02.060Z,35.10
2023-02-18T15:40:33.482Z,39.70
2023-02-18T15:43:05.027Z,38.90
2023-02-18T15:45:41.607Z,41.30
2023-02-18T15:48:21.007Z,38.80
2023-02-18T15:51:02.738Z,38.40
2023-02-18T15:53:40.584Z,50.50
2023-02-18T15:56:20.737Z,52.10
2023-02-18T15:58:48.731Z,55.90
2023-02-18T16:01:29.030Z,45.70
2023-02-18T16:03:57.171Z,61.80
2023-02-18T16:06:31.036Z,56.60
2023-02-18T16:09:13.928Z,52.30
2023-02-18T16:11:45.650Z,42.20
2023-02-18T16:14:27.599Z,45.90
2023-02-18T16:17:23.065Z,48.00
2023-02-18T16:20:05.763Z,50.60
2023-02-18T16:22:43.062Z,53.50
2023-02-18T16:25:13.898Z,47.90
2023-02-18T16:28:02.985Z,53.10
2023-02-18T16:30:33.340Z,46.00
2023-02-18T16:33:01.520Z,48.80
2023-02-18T16:35:43.945Z,50.90
2023-02-18T16:38:19.434Z,48.00
2023-02-18T16:40:48.861Z,44.40
2023-02-18T16:43:22.996Z,46.50
2023-02-18T16:46:15.236Z,41.60
2023-02-18T16:48:57.402Z,34.90
2023-02-18T16:51:31.708Z,33.50
2023-02-18T16:53:59.702Z,28.80
2023-02-18T16:56:35.693Z,26.10
2023-02-18T16:59:04.750Z,24.20
2023-02-18T17:01:32.641Z,23.10
2023-02-18T17:04:02.438Z,20.90
2023-02-18T17:06:30.638Z,20.40
2023-02-18T17:09:00.389Z,18.50
2023-02-18T17:11:36.034Z,16.10
2023-02-18T17:14:05.245Z,15.40
2023-02-18T17:16:33.452Z,14.70
2023-02-18T17:19:01.443Z,14.50
2023-02-18T17:21:29.467Z,15.10
2023-02-18T17:23:57.692Z,13.30
2023-02-18T17:26:28.196Z,14.90
2023-02-18T17:29:00.706Z,14.80
2023-02-18T17:31:31.746Z,12.60
2023-02-18T17:34:04.199Z,14.30
2023-02-18T17:36:32.841Z,14.10
2023-02-18T17:39:02.869Z,13.90
2023-02-18T17:41:30.896Z,13.90
2023-02-18T17:43:59.213Z,13.80
2023-02-18T17:46:27.166Z,14.60
2023-02-18T17:48:55.112Z,15.00
2023-02-18T17:51:25.777Z,15.30
2023-02-18T17:53:54.260Z,15.20
2023-02-18T17:56:24.024Z,14.60
2023-02-18T17:58:52.072Z,14.60
2023-02-18T18:01:21.309Z,15.80
2023-02-18T18:03:49.456Z,15.90
2023-02-18T18:06:20.130Z,16.10
2023-02-18T18:08:49.294Z,17.30
2023-02-18T18:11:22.258Z,14.90
2023-02-18T18:13:53.083Z,16.20
2023-02-18T18:16:21.967Z,16.80
2023-02-18T18:18:50.006Z,19.60
2023-02-18T18:21:29.389Z,18.70
2023-02-18T18:23:58.155Z,17.40
2023-02-18T18:26:26.169Z,15.10
2023-02-18T18:28:54.059Z,14.90
2023-02-18T18:31:22.208Z,14.40
2023-02-18T18:33:53.684Z,16.10
2023-02-18T18:36:24.526Z,14.20
2023-02-18T18:38:53.029Z,12.60
2023-02-18T18:41:23.218Z,13.40
2023-02-18T18:43:51.822Z,14.60
2023-02-18T18:46:25.609Z,14.10
2023-02-18T18:49:10.131Z,18.30
2023-02-18T18:51:39.086Z,16.70
2023-02-18T18:54:11.802Z,16.10
2023-02-18T18:56:39.723Z,16.00
2023-02-18T18:59:10.200Z,17.50
2023-02-18T19:01:38.808Z,15.50
2023-02-18T19:04:06.866Z,13.80
2023-02-18T19:06:35.521Z,15.80
2023-02-18T19:09:03.516Z,14.60
2023-02-18T19:11:31.468Z,12.50
2023-02-18T19:13:59.342Z,14.10
2023-02-18T19:16:37.554Z,13.30
2023-02-18T19:19:05.641Z,11.70
2023-02-18T19:21:33.611Z,10.70
2023-02-18T19:24:01.803Z,11.20
2023-02-18T19:26:29.729Z,10.70
2023-02-18T19:28:57.631Z,8.50
2023-02-18T19:31:26.681Z,8.40
2023-02-18T19:33:55.629Z,10.70
2023-02-18T19:36:23.537Z,7.80
2023-02-18T19:38:52.269Z,8.50
2023-02-18T19:41:20.286Z,8.60
2023-02-18T19:43:48.217Z,9.70
2023-02-18T19:46:18.612Z,8.60
2023-02-18T19:48:52.476Z,9.00
2023-02-18T19:51:25.141Z,9.60
2023-02-18T19:53:54.596Z,9.10
2023-02-18T19:56:24.425Z,8.80
2023-02-18T19:58:55.787Z,9.40
2023-02-18T20:01:23.801Z,9.70
2023-02-18T20:03:51.845Z,8.10
2023-02-18T20:06:22.316Z,8.60
2023-02-18T20:08:50.289Z,8.70
2023-02-18T20:11:18.204Z,8.60
2023-02-18T20:13:48.659Z,8.00
2023-02-18T20:16:16.618Z,8.10
2023-02-18T20:18:44.552Z,12.90
2023-02-18T20:21:13.191Z,9.40
2023-02-18T20:23:41.888Z,13.10
2023-02-18T20:26:11.841Z,10.90
2023-02-18T20:28:39.780Z,7.60
2023-02-18T20:31:12.095Z,12.40
2023-02-18T20:33:44.834Z,10.80
2023-02-18T20:36:15.112Z,15.70
2023-02-18T20:38:43.054Z,8.10
2023-02-18T20:41:18.348Z,12.50
2023-02-18T20:43:46.933Z,9.40
2023-02-18T20:46:17.674Z,7.50
2023-02-18T20:48:45.734Z,8.50
2023-02-18T20:51:16.540Z,8.00
2023-02-18T20:53:45.866Z,10.40
2023-02-18T20:56:14.299Z,7.60
2023-02-18T20:58:42.302Z,8.20
2023-02-18T21:01:13.677Z,9.00
2023-02-18T21:03:42.637Z,8.70
2023-02-18T21:06:15.292Z,7.90
2023-02-18T21:08:45.184Z,7.00
2023-02-18T21:11:18.013Z,12.90
2023-02-18T21:13:47.729Z,6.60
2023-02-18T21:16:17.052Z,7.40
2023-02-18T21:18:45.113Z,6.50
2023-02-18T21:21:13.655Z,6.80
2023-02-18T21:23:42.177Z,6.90
2023-02-18T21:26:12.863Z,6.10
2023-02-18T21:28:41.423Z,6.40
2023-02-18T21:31:21.706Z,6.70
2023-02-18T21:33:50.609Z,5.50
2023-02-18T21:36:19.885Z,5.80
2023-02-18T21:38:56.233Z,6.50
2023-02-18T21:41:25.918Z,4.60
2023-02-18T21:43:53.968Z,5.20
2023-02-18T21:46:24.786Z,5.60
2023-02-18T21:49:02.315Z,6.00
2023-02-18T21:51:57.122Z,4.90
2023-02-18T21:54:33.716Z,5.60
2023-02-18T21:57:28.273Z,4.90
2023-02-18T21:59:56.208Z,8.70
2023-02-18T22:02:27.291Z,5.50
2023-02-18T22:04:55.743Z,5.50
2023-02-18T22:07:26.832Z,5.40
2023-02-18T22:09:55.426Z,6.10
2023-02-18T22:12:24.475Z,5.20
2023-02-18T22:14:52.766Z,6.40
2023-02-18T22:17:21.721Z,6.40
2023-02-18T22:19:49.765Z,6.10
2023-02-18T22:22:17.809Z,6.60
2023-02-18T22:24:45.732Z,9.20
2023-02-18T22:27:13.646Z,8.90
2023-02-18T22:29:41.610Z,8.00
2023-02-18T22:32:10.217Z,9.00
2023-02-18T22:34:38.137Z,9.90
2023-02-18T22:37:06.084Z,10.40
2023-02-18T22:39:34.256Z,16.30
2023-02-18T22:42:02.336Z,8.60
2023-02-18T22:44:30.405Z,7.30
2023-02-18T22:46:58.443Z,7.90
2023-02-18T22:49:26.409Z,9.90
2023-02-18T22:51:54.575Z,12.90
2023-02-18T22:54:22.592Z,9.50
2023-02-18T22:56:50.553Z,9.50
2023-02-18T22:59:19.420Z,9.40
2023-02-18T23:01:49.705Z,9.40
2023-02-18T23:04:20.100Z,9.50
2023-02-18T23:06:49.269Z,8.20
2023-02-18T23:09:20.737Z,8.00
2023-02-18T23:11:58.163Z,9.00
2023-02-18T23:14:28.364Z,12.20
2023-02-18T23:17:13.871Z,8.20
2023-02-18T23:19:45.263Z,7.60
2023-02-18T23:22:15.881Z,9.10
2023-02-18T23:24:45.779Z,39.20
2023-02-18T23:27:15.727Z,28.10
2023-02-18T23:29:43.751Z,47.90
2023-02-18T23:32:11.855Z,35.80
2023-02-18T23:34:39.767Z,16.50
2023-02-18T23:37:07.880Z,9.40
2023-02-18T23:39:36.192Z,10.20
2023-02-18T23:42:04.228Z,7.90
2023-02-18T23:44:32.156Z,9.80
2023-02-18T23:47:00.380Z,8.20
2023-02-18T23:49:29.027Z,11.60
2023-02-18T23:51:57.284Z,15.50
2023-02-18T23:54:25.860Z,14.40
2023-02-18T23:56:53.974Z,16.40
2023-02-18T23:59:21.949Z,12.60
